Samsun Carsamba Airport Samsun TR
ICAO: LTFH
IATA: SZF
Category: Medium
Scheduled Services: Yes

Elevation: 18 ft
TransAlt. 10000 ft.

Airport Communications:
APP:118.175
ATIS:129.35
GND:121.7
TWR:118.35

LTFH Zoom In..

If you have problems with the map follow the link
https://www.worldairports.se/pages/airport.php?
ICAO=LTFH

Runways:

(A) RW 13 length 9843 ft width 148 ft
ILS 110.10 / hdg 129

(B) RW 31 length 9843 ft width 148 ft
---- / hdg 309

Location; LTFH
Day. 18 / Time. 04.50 Zulu
* QNH: 1010
* Temperature: 24° c. 75.2°f.
* Wind from: 290° Speed 05 kn.
Dewpoint: 20° c.
Visibility: 10 km or more.
Clouds: Scattered 3600 ft.
Clouds: Broken 1000 ft.
No significant changes expected in the near future.

LTFH 180450Z 29005KT 250V310 9999 SCT036 BKN100 24/20 Q1010 RETS NOSIG


Wind From 290°
Speed 05 kn.

 
 
jpsmedia.com for Web Design worldairports.se 2019   terms of use